createdAt,value
2019-02-15T00:01:49.540Z,25.70
2019-02-15T00:04:41.579Z,25.70
2019-02-15T00:07:33.388Z,25.70
2019-02-15T00:10:26.384Z,25.80
2019-02-15T00:13:18.319Z,25.80
2019-02-15T00:16:10.315Z,25.70
2019-02-15T00:19:16.007Z,25.70
2019-02-15T00:22:08.277Z,25.70
2019-02-15T00:25:00.296Z,25.80
2019-02-15T00:27:52.314Z,25.80
2019-02-15T00:30:44.379Z,25.70
2019-02-15T00:33:36.619Z,25.70
2019-02-15T00:36:28.951Z,25.70
2019-02-15T00:39:21.287Z,25.70
2019-02-15T00:42:13.333Z,25.70
2019-02-15T00:45:05.537Z,25.70
2019-02-15T00:48:04.698Z,25.70
2019-02-15T00:51:09.279Z,25.70
2019-02-15T00:54:18.278Z,25.70
2019-02-15T00:57:28.044Z,25.70
2019-02-15T01:00:41.651Z,25.70
2019-02-15T01:03:58.806Z,25.70
2019-02-15T01:07:00.829Z,25.70
2019-02-15T01:10:14.578Z,25.70
2019-02-15T01:13:15.419Z,25.70
2019-02-15T01:16:07.459Z,25.70
2019-02-15T01:18:59.655Z,25.70
2019-02-15T01:21:51.713Z,25.60
2019-02-15T01:24:43.716Z,25.70
2019-02-15T01:27:42.164Z,25.70
2019-02-15T01:30:51.025Z,25.60
2019-02-15T01:33:57.109Z,25.70
2019-02-15T01:37:20.831Z,25.60
2019-02-15T01:40:31.367Z,25.70
2019-02-15T01:43:42.168Z,25.70
2019-02-15T01:46:39.172Z,25.60
2019-02-15T01:49:31.309Z,25.60
2019-02-15T01:52:23.455Z,25.60
2019-02-15T01:55:15.368Z,25.60
2019-02-15T01:58:07.467Z,25.60
2019-02-15T02:00:59.519Z,25.60
2019-02-15T02:03:51.575Z,25.60
2019-02-15T02:06:43.933Z,25.60
2019-02-15T02:09:36.320Z,25.60
2019-02-15T02:12:28.630Z,25.60
2019-02-15T02:15:20.999Z,25.60
2019-02-15T02:18:13.043Z,25.70
2019-02-15T02:21:05.004Z,25.70
2019-02-15T02:23:57.088Z,25.60
2019-02-15T02:26:49.432Z,25.60
2019-02-15T02:29:41.296Z,25.70
2019-02-15T02:32:33.490Z,25.60
2019-02-15T02:35:25.655Z,25.70
2019-02-15T02:38:17.867Z,25.60
2019-02-15T02:41:09.602Z,25.70
2019-02-15T02:44:01.943Z,25.60
2019-02-15T02:46:53.974Z,25.60
2019-02-15T02:49:46.243Z,25.70
2019-02-15T02:52:38.529Z,25.60
2019-02-15T02:55:31.576Z,25.60
2019-02-15T02:58:23.744Z,25.70
2019-02-15T03:01:16.308Z,25.70
2019-02-15T03:04:08.990Z,25.60
2019-02-15T03:07:01.519Z,25.70
2019-02-15T03:09:53.789Z,25.60
2019-02-15T03:12:45.987Z,25.60
2019-02-15T03:15:38.099Z,25.70
2019-02-15T03:18:29.978Z,25.70
2019-02-15T03:21:22.023Z,25.60
2019-02-15T03:24:14.088Z,25.60
2019-02-15T03:27:07.452Z,25.70
2019-02-15T03:29:59.600Z,25.70
2019-02-15T03:32:51.728Z,25.70
2019-02-15T03:35:56.370Z,25.70
2019-02-15T03:38:53.118Z,25.70
2019-02-15T03:41:45.305Z,25.70
2019-02-15T03:44:37.333Z,25.70
2019-02-15T03:47:29.789Z,25.70
2019-02-15T03:50:22.657Z,25.70
2019-02-15T03:53:16.553Z,25.70
2019-02-15T03:56:08.685Z,25.70
2019-02-15T03:59:00.895Z,25.70
2019-02-15T04:01:52.847Z,25.70
2019-02-15T04:04:47.571Z,25.70
2019-02-15T04:07:40.364Z,25.70
2019-02-15T04:10:32.859Z,25.70
2019-02-15T04:13:24.762Z,25.70
2019-02-15T04:16:17.239Z,25.70
2019-02-15T04:19:09.108Z,25.70
2019-02-15T04:22:01.150Z,25.70
2019-02-15T04:24:53.823Z,25.70
2019-02-15T04:27:46.145Z,25.70
2019-02-15T04:30:38.166Z,25.70
2019-02-15T04:33:34.622Z,25.70
2019-02-15T04:36:28.152Z,25.70
2019-02-15T04:39:20.669Z,25.70
2019-02-15T04:42:15.135Z,25.70
2019-02-15T04:45:07.476Z,25.70
2019-02-15T04:48:00.539Z,25.70
2019-02-15T04:50:53.115Z,25.70
2019-02-15T04:53:45.788Z,25.70
2019-02-15T04:56:38.064Z,25.70
2019-02-15T04:59:30.476Z,25.70
2019-02-15T05:02:23.026Z,25.70
2019-02-15T05:05:15.553Z,25.70
2019-02-15T05:08:08.189Z,25.70
2019-02-15T05:11:00.815Z,25.70
2019-02-15T05:13:52.803Z,25.70
2019-02-15T05:17:05.628Z,25.70
2019-02-15T05:19:57.931Z,25.70
2019-02-15T05:22:50.114Z,25.70
2019-02-15T05:25:44.440Z,25.70
2019-02-15T05:28:37.471Z,25.70
2019-02-15T05:31:35.799Z,25.80
2019-02-15T05:34:29.658Z,25.80
2019-02-15T05:37:22.213Z,25.70
2019-02-15T05:40:14.878Z,25.80
2019-02-15T05:43:07.375Z,25.80
2019-02-15T05:46:00.115Z,25.80
2019-02-15T05:48:52.617Z,25.80
2019-02-15T05:51:47.293Z,25.80
2019-02-15T05:54:39.514Z,25.90
2019-02-15T05:57:31.907Z,25.80
2019-02-15T06:00:36.700Z,25.80
2019-02-15T06:03:21.101Z,25.90
2019-02-15T06:06:14.860Z,25.90
2019-02-15T06:09:07.716Z,25.90
2019-02-15T06:11:59.632Z,25.80
2019-02-15T06:14:51.902Z,25.90
2019-02-15T06:17:46.036Z,25.90
2019-02-15T06:20:48.271Z,25.90
2019-02-15T06:23:44.858Z,25.90
2019-02-15T06:26:39.666Z,25.90
2019-02-15T06:29:34.550Z,25.90
2019-02-15T06:32:31.945Z,25.90
2019-02-15T06:35:26.354Z,25.90
2019-02-15T06:38:19.861Z,25.80
2019-02-15T06:41:14.367Z,25.90
2019-02-15T06:44:06.769Z,25.90
2019-02-15T06:47:00.398Z,25.90
2019-02-15T06:49:53.282Z,25.90
2019-02-15T06:52:48.723Z,25.90
2019-02-15T06:55:42.802Z,25.90
2019-02-15T06:58:45.501Z,25.90
2019-02-15T07:01:37.352Z,25.90
2019-02-15T07:04:40.409Z,26.00
2019-02-15T07:07:33.066Z,25.90
2019-02-15T07:10:27.909Z,26.00
2019-02-15T07:13:20.339Z,25.90
2019-02-15T07:16:13.439Z,25.90
2019-02-15T07:19:05.574Z,26.00
2019-02-15T07:21:59.541Z,26.00
2019-02-15T07:24:52.409Z,26.00
2019-02-15T07:27:45.475Z,26.00
2019-02-15T07:30:37.881Z,26.00
2019-02-15T07:33:31.491Z,26.00
2019-02-15T07:36:27.122Z,26.00
2019-02-15T07:39:19.760Z,26.00
2019-02-15T07:42:12.077Z,26.00
2019-02-15T07:45:05.321Z,26.00
2019-02-15T07:48:00.295Z,26.10
2019-02-15T07:50:54.556Z,26.00
2019-02-15T07:53:47.679Z,26.10
2019-02-15T07:56:41.056Z,26.10
2019-02-15T07:59:33.224Z,26.10
2019-02-15T08:02:25.478Z,26.10
2019-02-15T08:05:18.254Z,26.10
2019-02-15T08:08:10.816Z,26.10
2019-02-15T08:11:03.295Z,26.10
2019-02-15T08:13:55.575Z,26.10
2019-02-15T08:16:47.843Z,26.10
2019-02-15T08:19:39.938Z,26.10
2019-02-15T08:22:32.066Z,26.10
2019-02-15T08:25:24.534Z,26.10
2019-02-15T08:28:16.737Z,26.10
2019-02-15T08:31:09.150Z,26.10
2019-02-15T08:34:01.966Z,26.10
2019-02-15T08:36:54.160Z,26.10
2019-02-15T08:39:46.574Z,26.20
2019-02-15T08:42:38.909Z,26.20
2019-02-15T08:45:31.250Z,26.10
2019-02-15T08:48:23.865Z,26.20
2019-02-15T08:51:16.017Z,26.20
2019-02-15T08:54:10.899Z,26.20
2019-02-15T08:57:03.441Z,26.20
2019-02-15T08:59:58.408Z,26.10
2019-02-15T09:02:51.069Z,26.20
2019-02-15T09:05:43.581Z,26.20
2019-02-15T09:08:37.269Z,26.20
2019-02-15T09:11:32.665Z,26.20
2019-02-15T09:14:27.792Z,26.20
2019-02-15T09:17:21.066Z,26.20
2019-02-15T09:20:14.158Z,26.20
2019-02-15T09:23:06.809Z,26.20
2019-02-15T09:25:58.765Z,26.20
2019-02-15T09:29:07.443Z,26.20
2019-02-15T09:32:00.710Z,26.20
2019-02-15T09:34:55.402Z,26.20
2019-02-15T09:37:49.473Z,26.20
2019-02-15T09:40:44.375Z,26.20
2019-02-15T09:43:37.027Z,26.20
2019-02-15T09:46:29.121Z,26.20
2019-02-15T09:49:22.224Z,26.20
2019-02-15T09:52:15.218Z,26.20
2019-02-15T09:55:07.647Z,26.20
2019-02-15T09:58:00.135Z,26.20
2019-02-15T10:00:52.234Z,26.20
2019-02-15T10:03:44.848Z,26.20
2019-02-15T10:06:37.273Z,26.30
2019-02-15T10:09:30.053Z,26.30
2019-02-15T10:12:22.625Z,26.30
2019-02-15T10:15:15.004Z,26.30
2019-02-15T10:18:06.914Z,26.30
2019-02-15T10:20:59.324Z,26.20
2019-02-15T10:23:51.558Z,26.30
2019-02-15T10:26:44.299Z,26.30
2019-02-15T10:29:37.133Z,26.30
2019-02-15T10:32:29.885Z,26.30
2019-02-15T10:35:22.470Z,26.30
2019-02-15T10:38:16.600Z,26.30
2019-02-15T10:41:09.757Z,26.40
2019-02-15T10:44:02.378Z,26.40
2019-02-15T10:46:54.734Z,26.40
2019-02-15T10:49:47.237Z,26.40
2019-02-15T10:52:40.182Z,26.40
2019-02-15T10:55:33.681Z,26.40
2019-02-15T10:58:26.440Z,26.40
2019-02-15T11:01:18.955Z,26.40
2019-02-15T11:04:11.614Z,26.40
2019-02-15T11:07:04.264Z,26.40
2019-02-15T11:09:57.219Z,26.40
2019-02-15T11:12:51.033Z,26.40
2019-02-15T11:15:43.191Z,26.40
2019-02-15T11:18:35.635Z,26.40
2019-02-15T11:21:28.024Z,26.50
2019-02-15T11:24:20.219Z,26.40
2019-02-15T11:27:14.006Z,26.40
2019-02-15T11:30:08.499Z,26.40
2019-02-15T11:33:01.463Z,26.50
2019-02-15T11:35:53.572Z,26.50
2019-02-15T11:38:47.011Z,26.50
2019-02-15T11:41:43.685Z,26.40
2019-02-15T11:44:37.009Z,26.50
2019-02-15T11:47:35.847Z,26.50
2019-02-15T11:50:28.483Z,26.50
2019-02-15T11:56:24.568Z,26.50
2019-02-15T11:59:16.939Z,26.40
2019-02-15T12:02:10.308Z,26.50
2019-02-15T12:05:03.040Z,26.40
2019-02-15T12:07:56.699Z,26.40
2019-02-15T12:10:49.392Z,26.50
2019-02-15T12:13:41.887Z,26.40
2019-02-15T12:16:35.278Z,26.50
2019-02-15T12:19:28.371Z,26.50
2019-02-15T12:22:20.670Z,26.50
2019-02-15T12:25:13.458Z,26.50
2019-02-15T12:28:05.682Z,26.50
2019-02-15T12:30:57.714Z,26.50
2019-02-15T12:33:50.042Z,26.50
2019-02-15T12:36:43.330Z,26.50
2019-02-15T12:39:35.386Z,26.50
2019-02-15T12:42:27.521Z,26.50
2019-02-15T12:45:20.040Z,26.50
2019-02-15T12:48:12.052Z,26.50
2019-02-15T12:51:04.945Z,26.50
2019-02-15T12:53:58.358Z,26.50
2019-02-15T12:56:51.082Z,26.60
2019-02-15T12:59:43.758Z,26.50
2019-02-15T13:02:35.925Z,26.60
2019-02-15T13:05:28.521Z,26.60
2019-02-15T13:08:21.005Z,26.60
2019-02-15T13:11:13.306Z,26.60
2019-02-15T13:14:05.614Z,26.60
2019-02-15T13:16:58.063Z,26.50
2019-02-15T13:19:50.707Z,26.50
2019-02-15T13:22:43.571Z,26.60
2019-02-15T13:25:46.873Z,26.60
2019-02-15T13:28:38.974Z,26.60
2019-02-15T13:31:31.330Z,26.50
2019-02-15T13:34:23.580Z,26.60
2019-02-15T13:37:15.972Z,26.60
2019-02-15T13:40:08.591Z,26.60
2019-02-15T13:43:01.114Z,26.60
2019-02-15T13:45:53.355Z,26.60
2019-02-15T13:48:45.544Z,26.60
2019-02-15T13:51:39.979Z,26.60
2019-02-15T13:54:32.235Z,26.60
2019-02-15T13:57:24.749Z,26.60
2019-02-15T14:00:17.340Z,26.60
2019-02-15T14:03:10.389Z,26.60
2019-02-15T14:06:03.397Z,26.60
2019-02-15T14:08:55.983Z,26.60
2019-02-15T14:11:48.364Z,26.60
2019-02-15T14:14:40.603Z,26.60
2019-02-15T14:17:33.130Z,26.60
2019-02-15T14:20:25.654Z,26.60
2019-02-15T14:23:18.201Z,26.70
2019-02-15T14:26:10.596Z,26.60
2019-02-15T14:29:03.161Z,26.70
2019-02-15T14:31:55.246Z,26.60
2019-02-15T14:34:47.563Z,26.60
2019-02-15T14:37:40.339Z,26.60
2019-02-15T14:40:32.906Z,26.60
2019-02-15T14:43:24.940Z,26.60
2019-02-15T14:46:18.404Z,26.60
2019-02-15T14:49:11.199Z,26.70
2019-02-15T14:52:03.988Z,26.60
2019-02-15T14:54:56.185Z,26.60
2019-02-15T14:57:48.855Z,26.60
2019-02-15T15:00:41.301Z,26.60
2019-02-15T15:03:33.857Z,26.60
2019-02-15T15:06:26.411Z,26.60
2019-02-15T15:09:19.221Z,26.60
2019-02-15T15:12:11.235Z,26.60
2019-02-15T15:15:03.479Z,26.60
2019-02-15T15:18:02.526Z,26.60
2019-02-15T15:20:50.407Z,26.60
2019-02-15T15:23:42.667Z,26.60
2019-02-15T15:26:35.504Z,26.60
2019-02-15T15:29:27.729Z,26.60
2019-02-15T15:32:19.895Z,26.60
2019-02-15T15:35:12.356Z,26.60
2019-02-15T15:38:04.565Z,26.60
2019-02-15T15:40:58.281Z,26.60
2019-02-15T15:43:50.923Z,26.60
2019-02-15T15:46:42.866Z,26.60
2019-02-15T15:49:35.330Z,26.60
2019-02-15T15:52:27.599Z,26.60
2019-02-15T15:55:19.738Z,26.60
2019-02-15T15:58:11.962Z,26.60
2019-02-15T16:01:03.983Z,26.60
2019-02-15T16:03:56.365Z,26.60
2019-02-15T16:33:58.025Z,26.40
2019-02-15T16:36:51.048Z,26.40
2019-02-15T16:39:43.354Z,26.40
2019-02-15T16:42:35.687Z,26.40
2019-02-15T16:45:28.875Z,26.40
2019-02-15T16:48:21.253Z,26.40
2019-02-15T16:51:13.642Z,26.40
2019-02-15T16:54:06.015Z,26.40
2019-02-15T16:56:58.452Z,26.40
2019-02-15T16:59:50.651Z,26.40
2019-02-15T17:02:44.245Z,26.40
2019-02-15T17:05:36.275Z,26.40
2019-02-15T17:08:28.316Z,26.40
2019-02-15T17:11:20.320Z,26.40
2019-02-15T17:14:12.704Z,26.40
2019-02-15T17:17:04.907Z,26.40
2019-02-15T17:19:57.062Z,26.40
2019-02-15T17:22:49.365Z,26.30
2019-02-15T17:25:41.404Z,26.40
2019-02-15T17:28:35.893Z,26.40
2019-02-15T17:31:29.598Z,26.40
2019-02-15T17:34:21.442Z,26.30
2019-02-15T17:37:13.550Z,26.30
2019-02-15T17:40:05.875Z,26.40
2019-02-15T17:42:58.531Z,26.30
2019-02-15T17:45:51.146Z,26.30
2019-02-15T17:48:43.170Z,26.40
2019-02-15T17:51:35.846Z,26.30
2019-02-15T17:54:28.032Z,26.30
2019-02-15T17:57:20.203Z,26.30
2019-02-15T18:00:12.713Z,26.30
2019-02-15T18:03:04.898Z,26.30
2019-02-15T18:05:57.047Z,26.30
2019-02-15T18:08:49.247Z,26.30
2019-02-15T18:11:41.543Z,26.30
2019-02-15T18:14:33.865Z,26.30
2019-02-15T18:17:26.424Z,26.30
2019-02-15T18:20:18.641Z,26.30
2019-02-15T18:23:11.121Z,26.30
2019-02-15T18:26:03.231Z,26.30
2019-02-15T18:28:55.796Z,26.30
2019-02-15T18:31:47.907Z,26.30
2019-02-15T18:34:40.515Z,26.30
2019-02-15T18:37:32.372Z,26.30
2019-02-15T18:40:25.504Z,26.30
2019-02-15T18:43:17.837Z,26.30
2019-02-15T18:46:10.222Z,26.30
2019-02-15T18:49:02.617Z,26.30
2019-02-15T18:51:54.637Z,26.20
2019-02-15T18:54:46.676Z,26.30
2019-02-15T18:57:38.711Z,26.30
2019-02-15T19:00:31.074Z,26.20
2019-02-15T19:03:23.364Z,26.20
2019-02-15T19:06:15.427Z,26.20
2019-02-15T19:09:08.407Z,26.20
2019-02-15T19:12:00.417Z,26.20
2019-02-15T19:14:52.406Z,26.20
2019-02-15T19:17:44.490Z,26.20
2019-02-15T19:20:36.527Z,26.20
2019-02-15T19:23:28.552Z,26.20
2019-02-15T19:26:20.255Z,26.20
2019-02-15T19:29:12.256Z,26.20
2019-02-15T19:32:04.324Z,26.20
2019-02-15T19:34:56.616Z,26.20
2019-02-15T19:37:48.789Z,26.20
2019-02-15T19:40:41.030Z,26.20
2019-02-15T19:43:33.191Z,26.20
2019-02-15T19:46:25.412Z,26.20
2019-02-15T19:49:17.756Z,26.10
2019-02-15T19:52:10.167Z,26.20
2019-02-15T19:55:02.450Z,26.20
2019-02-15T19:57:54.482Z,26.20
2019-02-15T20:00:47.120Z,26.20
2019-02-15T20:03:39.148Z,26.20
2019-02-15T20:06:31.381Z,26.20
2019-02-15T20:09:23.445Z,26.10
2019-02-15T20:12:18.315Z,26.10
2019-02-15T20:15:11.197Z,26.10
2019-02-15T20:18:03.540Z,26.10
2019-02-15T20:20:55.969Z,26.10
2019-02-15T20:23:48.293Z,26.10
2019-02-15T20:26:40.335Z,26.10
2019-02-15T20:29:32.646Z,26.10
2019-02-15T20:32:24.703Z,26.10
2019-02-15T20:35:16.737Z,26.10
2019-02-15T20:38:08.684Z,26.10
2019-02-15T20:41:00.504Z,26.10
2019-02-15T20:43:52.502Z,26.10
2019-02-15T20:46:44.838Z,26.10
2019-02-15T20:49:37.175Z,26.10
2019-02-15T20:52:29.132Z,26.10
2019-02-15T20:55:21.270Z,26.10
2019-02-15T20:58:13.206Z,26.10
2019-02-15T21:01:05.352Z,26.10
2019-02-15T21:03:57.403Z,26.10
2019-02-15T21:06:49.624Z,26.10
2019-02-15T21:09:41.436Z,26.00
2019-02-15T21:12:33.468Z,26.00
2019-02-15T21:15:25.791Z,26.00
2019-02-15T21:18:17.837Z,26.00
2019-02-15T21:21:10.167Z,26.00
2019-02-15T21:24:02.232Z,26.00
2019-02-15T21:26:54.446Z,26.00
2019-02-15T21:29:46.877Z,26.00
2019-02-15T21:32:39.227Z,26.00
2019-02-15T21:35:31.596Z,26.00
2019-02-15T21:38:23.813Z,26.00
2019-02-15T21:41:15.913Z,26.00
2019-02-15T21:44:08.687Z,26.00
2019-02-15T21:47:00.595Z,26.00
2019-02-15T21:49:52.587Z,26.00
2019-02-15T21:52:44.821Z,26.00
2019-02-15T21:55:37.101Z,26.00
2019-02-15T21:58:29.251Z,26.00
2019-02-15T22:01:21.418Z,25.90
2019-02-15T22:04:13.703Z,25.90
2019-02-15T22:07:06.911Z,25.90
2019-02-15T22:09:59.069Z,25.90
2019-02-15T22:12:51.361Z,25.90
2019-02-15T22:15:43.361Z,25.90
2019-02-15T22:18:36.266Z,25.90
2019-02-15T22:21:28.354Z,25.90
2019-02-15T22:24:20.682Z,25.90
2019-02-15T22:27:12.751Z,25.90
2019-02-15T22:30:05.192Z,25.90
2019-02-15T22:32:57.428Z,25.90
2019-02-15T22:35:49.442Z,25.90
2019-02-15T22:38:41.804Z,25.90
2019-02-15T22:41:33.871Z,25.90
2019-02-15T22:44:25.943Z,25.90
2019-02-15T22:47:18.027Z,25.90
2019-02-15T22:50:10.207Z,25.90
2019-02-15T22:53:02.187Z,25.80
2019-02-15T22:55:55.263Z,25.80
2019-02-15T22:58:47.230Z,25.80
2019-02-15T23:01:38.988Z,25.80
2019-02-15T23:04:31.013Z,25.80
2019-02-15T23:07:23.044Z,25.80
2019-02-15T23:10:15.173Z,25.80
2019-02-15T23:13:07.612Z,25.80
2019-02-15T23:15:59.741Z,25.80
2019-02-15T23:18:51.766Z,25.80
2019-02-15T23:21:44.018Z,25.80
2019-02-15T23:24:35.742Z,25.80
2019-02-15T23:27:27.849Z,25.80
2019-02-15T23:30:19.841Z,25.80
2019-02-15T23:33:12.229Z,25.80
2019-02-15T23:36:04.510Z,25.80
2019-02-15T23:38:56.947Z,25.80
2019-02-15T23:41:49.258Z,25.80
2019-02-15T23:44:41.530Z,25.80
2019-02-15T23:47:34.865Z,25.80
2019-02-15T23:50:26.832Z,25.80
2019-02-15T23:53:18.934Z,25.80
2019-02-15T23:56:10.914Z,25.80
2019-02-15T23:59:03.031Z,25.80
